Sault Ste. Marie, MI

5:48 PM EDT on July 27, 2016 (GMT -0400)
NOS_NWLON | | Change Station

Elev 609 ft 46.50 °N, 84.37 °W | Updated 136 days ago

Cloudy
Cloudy
71 °F
Feels Like 71 °F
N
10
Wind Variable Wind from NW
Gusts 17 mph

Today
High -- | Low -- °F
--% Chance of Precip.
Yesterday
High -- | Low -- °F
Precip. -- in
Pressure 29.94 in
Visibility 10.0 miles
Clouds Clear
Dew Point 57 °F
Humidity 61%
Rainfall in
Snow Depth Not available.
6:13 AM 9:14 PM
Last Quarter, 39% visible
METAR KANJ 272055Z AUTO 31007KT 10SM CLR 26/13 A2996 RMK AO2 SLP139 T02560128 55006
Pressure 29.94 in
Visibility 10.0 miles
Clouds Clear
Dew Point 57 °F
Humidity 61%
Rainfall in
Snow Depth Not available.
6:13 AM 9:14 PM
Last Quarter, 39% visible
METAR KANJ 272055Z AUTO 31007KT 10SM CLR 26/13 A2996 RMK AO2 SLP139 T02560128 55006

10-Day Weather Forecast

Almanac

Astronomy

Jul. 27, 2016 Rise Set
Actual Time
Civil Twilight
Nautical Twilight
Astronomical Twilight
Moon
Length of Visible Light
Length of Day
Tomorrow will be .
, % of the Moon is Illuminated

Today's Extremes

State Highs State Lows

Community

WunderPhotos

Upload Photos

1,927,944 photos uploaded!

WunderBlog® & News

Nearby

Air Quality

  Air Quality AQ Index Pollutant
Not available.

Snow Depth

Station Depth Elevation

Earthquake Activity

City Distance Mag. Time & Date
Minimum magnitude displayed is 2.5.

Coastal Water Temperatures

Place Temperature

Stations

Nearby Weather Stations

Station Location Temp. Windchill Dew Point Humidity Wind Precip. Elev Updated Type
                   

Watches & Warnings

There are currently no watches in effect.